createdAt,value
2018-08-13T00:01:47.184Z,88.90
2018-08-13T00:04:15.640Z,89.90
2018-08-13T00:06:44.060Z,89.70
2018-08-13T00:09:12.530Z,89.40
2018-08-13T00:11:41.055Z,88.80
2018-08-13T00:14:09.543Z,87.60
2018-08-13T00:16:38.045Z,88.00
2018-08-13T00:19:06.464Z,87.80
2018-08-13T00:21:34.894Z,88.80
2018-08-13T00:24:03.323Z,88.40
2018-08-13T00:26:31.764Z,88.40
2018-08-13T00:29:00.189Z,90.30
2018-08-13T00:31:28.643Z,90.10
2018-08-13T00:33:57.057Z,90.20
2018-08-13T00:36:25.471Z,90.60
2018-08-13T00:38:53.899Z,90.90
2018-08-13T00:41:22.336Z,91.10
2018-08-13T00:43:50.767Z,91.70
2018-08-13T00:46:19.178Z,90.60
2018-08-13T00:48:47.628Z,89.90
2018-08-13T00:51:16.045Z,90.20
2018-08-13T00:53:44.468Z,90.50
2018-08-13T00:56:12.884Z,90.60
2018-08-13T00:58:41.416Z,90.70
2018-08-13T01:01:09.823Z,90.80
2018-08-13T01:03:38.328Z,91.20
2018-08-13T01:06:06.775Z,91.50
2018-08-13T01:08:35.195Z,92.30
2018-08-13T01:11:03.644Z,91.60
2018-08-13T01:13:32.055Z,92.40
2018-08-13T01:16:00.490Z,92.30
2018-08-13T01:18:28.908Z,92.10
2018-08-13T01:20:57.334Z,91.90
2018-08-13T01:23:25.751Z,92.00
2018-08-13T01:25:54.226Z,91.80
2018-08-13T01:28:22.706Z,92.40
2018-08-13T01:30:51.331Z,92.60
2018-08-13T01:33:19.767Z,93.00
2018-08-13T01:35:48.211Z,93.10
2018-08-13T01:38:16.645Z,93.00
2018-08-13T01:40:45.187Z,92.80
2018-08-13T01:43:13.660Z,92.60
2018-08-13T01:45:42.103Z,93.10
2018-08-13T01:48:10.544Z,93.50
2018-08-13T01:50:39.024Z,92.70
2018-08-13T01:53:09.819Z,93.20
2018-08-13T01:55:38.575Z,93.30
2018-08-13T01:58:07.076Z,93.20
2018-08-13T02:00:35.482Z,93.40
2018-08-13T02:03:04.043Z,93.00
2018-08-13T02:05:32.499Z,93.00
2018-08-13T02:08:00.952Z,93.60
2018-08-13T02:10:29.423Z,94.00
2018-08-13T02:12:57.885Z,94.10
2018-08-13T02:15:26.868Z,94.40
2018-08-13T02:17:55.312Z,94.80
2018-08-13T02:20:23.838Z,94.70
2018-08-13T02:22:52.299Z,94.70
2018-08-13T02:25:20.704Z,95.10
2018-08-13T02:27:49.189Z,95.20
2018-08-13T02:30:17.626Z,95.70
2018-08-13T02:32:46.074Z,95.60
2018-08-13T02:35:14.491Z,95.00
2018-08-13T02:37:42.891Z,94.90
2018-08-13T02:40:11.596Z,95.40
2018-08-13T02:42:40.012Z,95.20
2018-08-13T02:45:09.871Z,95.80
2018-08-13T02:47:38.396Z,95.40
2018-08-13T02:50:09.135Z,95.50
2018-08-13T02:52:37.562Z,96.10
2018-08-13T02:55:06.592Z,95.70
2018-08-13T02:57:35.019Z,96.40
2018-08-13T03:00:04.315Z,96.20
2018-08-13T03:02:32.783Z,95.70
2018-08-13T03:05:01.218Z,95.40
2018-08-13T03:07:29.745Z,95.50
2018-08-13T03:09:58.172Z,95.80
2018-08-13T03:12:26.600Z,96.70
2018-08-13T03:14:55.031Z,96.50
2018-08-13T03:17:32.543Z,96.60
2018-08-13T03:20:01.857Z,96.70
2018-08-13T03:22:31.256Z,96.70
2018-08-13T03:25:00.937Z,97.00
2018-08-13T03:27:29.959Z,96.70
2018-08-13T03:29:59.453Z,96.50
2018-08-13T03:32:27.883Z,95.90
2018-08-13T03:34:56.300Z,95.90
2018-08-13T03:37:24.744Z,96.30
2018-08-13T03:39:53.158Z,96.50
2018-08-13T03:42:21.583Z,96.90
2018-08-13T03:44:50.016Z,97.20
2018-08-13T03:47:18.460Z,97.50
2018-08-13T03:49:46.920Z,96.80
2018-08-13T03:52:15.371Z,96.40
2018-08-13T03:54:43.823Z,97.10
2018-08-13T03:57:12.284Z,97.10
2018-08-13T03:59:40.758Z,97.60
2018-08-13T04:02:09.215Z,97.40
2018-08-13T04:04:37.659Z,97.30
2018-08-13T04:07:06.183Z,97.40
2018-08-13T04:09:34.626Z,97.30
2018-08-13T04:12:03.157Z,97.40
2018-08-13T04:14:31.636Z,97.80
2018-08-13T04:17:01.916Z,98.50
2018-08-13T04:19:31.499Z,98.30
2018-08-13T04:22:00.484Z,98.30
2018-08-13T04:24:28.962Z,98.40
2018-08-13T04:26:57.952Z,99.30
2018-08-13T04:29:26.763Z,99.40
2018-08-13T04:31:55.311Z,99.40
2018-08-13T04:34:23.750Z,99.10
2018-08-13T04:36:52.195Z,99.00
2018-08-13T04:39:20.735Z,99.60
2018-08-13T04:41:49.148Z,99.90
2018-08-13T04:44:17.697Z,99.80
2018-08-13T04:46:46.174Z,99.90
2018-08-13T04:49:14.711Z,99.90
2018-08-13T04:51:43.127Z,99.90
2018-08-13T04:54:11.665Z,99.90
2018-08-13T04:56:40.069Z,99.90
2018-08-13T04:59:08.508Z,99.90
2018-08-13T05:01:36.936Z,99.90
2018-08-13T05:04:05.398Z,99.90
2018-08-13T05:06:33.821Z,99.90
2018-08-13T05:09:02.335Z,99.90
2018-08-13T05:11:30.770Z,99.90
2018-08-13T05:13:59.279Z,99.90
2018-08-13T05:16:27.724Z,99.90
2018-08-13T05:18:56.162Z,99.90
2018-08-13T05:21:24.601Z,99.90
2018-08-13T05:23:52.995Z,99.90
2018-08-13T05:26:21.440Z,99.90
2018-08-13T05:28:49.843Z,99.90
2018-08-13T05:31:18.282Z,99.90
2018-08-13T05:33:46.691Z,99.90
2018-08-13T05:36:15.134Z,99.90
2018-08-13T05:38:43.635Z,99.90
2018-08-13T05:41:12.111Z,99.90
2018-08-13T05:43:40.552Z,99.90
2018-08-13T05:46:09.011Z,99.90
2018-08-13T05:48:37.439Z,99.90
2018-08-13T05:51:05.922Z,99.90
2018-08-13T05:53:34.408Z,99.90
2018-08-13T05:56:02.867Z,99.90
2018-08-13T05:58:31.307Z,99.90
2018-08-13T06:00:59.752Z,99.90
2018-08-13T06:03:28.214Z,99.90
2018-08-13T06:05:56.728Z,99.90
2018-08-13T06:08:25.183Z,99.90
2018-08-13T06:10:53.629Z,99.90
2018-08-13T06:13:22.150Z,99.90
2018-08-13T06:15:50.566Z,99.90
2018-08-13T06:18:18.999Z,99.90
2018-08-13T06:20:47.483Z,99.90
2018-08-13T06:23:15.923Z,99.90
2018-08-13T06:25:44.354Z,99.90
2018-08-13T06:28:12.847Z,99.90
2018-08-13T06:30:41.260Z,99.90
2018-08-13T06:33:09.695Z,99.90
2018-08-13T06:35:38.161Z,99.90
2018-08-13T06:38:06.740Z,99.90
2018-08-13T06:40:36.236Z,99.90
2018-08-13T06:43:04.645Z,99.90
2018-08-13T06:45:33.156Z,99.50
2018-08-13T06:48:01.585Z,99.90
2018-08-13T06:50:30.022Z,99.90
2018-08-13T06:52:58.446Z,99.10
2018-08-13T06:55:26.899Z,99.30
2018-08-13T06:57:55.331Z,98.90
2018-08-13T07:00:23.815Z,99.50
2018-08-13T07:02:52.296Z,99.20
2018-08-13T07:05:20.740Z,99.20
2018-08-13T07:07:49.169Z,99.40
2018-08-13T07:10:17.615Z,98.70
2018-08-13T07:12:47.035Z,98.20
2018-08-13T07:15:16.342Z,97.20
2018-08-13T07:17:44.860Z,96.20
2018-08-13T07:20:16.287Z,96.30
2018-08-13T07:22:45.010Z,96.10
2018-08-13T07:25:13.447Z,95.70
2018-08-13T07:27:42.492Z,96.00
2018-08-13T07:30:13.389Z,96.10
2018-08-13T07:32:42.439Z,95.70
2018-08-13T07:35:10.943Z,95.60
2018-08-13T07:37:39.390Z,95.50
2018-08-13T07:40:11.788Z,95.10
2018-08-13T07:42:40.249Z,95.00
2018-08-13T07:45:09.447Z,95.10
2018-08-13T07:47:37.959Z,95.30
2018-08-13T07:50:08.081Z,95.50
2018-08-13T07:52:36.758Z,95.60
2018-08-13T07:55:05.811Z,97.10
2018-08-13T07:57:34.331Z,96.00
2018-08-13T08:00:02.849Z,96.20
2018-08-13T08:02:31.259Z,97.10
2018-08-13T08:04:59.712Z,96.40
2018-08-13T08:07:28.156Z,97.00
2018-08-13T08:09:56.588Z,97.20
2018-08-13T08:12:25.299Z,97.20
2018-08-13T08:14:53.732Z,97.80
2018-08-13T08:17:22.191Z,98.30
2018-08-13T08:19:50.624Z,98.80
2018-08-13T08:22:19.212Z,99.90
2018-08-13T08:24:47.651Z,99.90
2018-08-13T08:27:16.195Z,99.90
2018-08-13T08:29:44.609Z,99.90
2018-08-13T08:32:13.043Z,99.90
2018-08-13T08:34:41.477Z,99.90
2018-08-13T08:37:09.898Z,99.90
2018-08-13T08:39:38.355Z,99.90
2018-08-13T08:42:06.804Z,99.90
2018-08-13T08:44:35.244Z,99.90
2018-08-13T08:47:03.711Z,99.90
2018-08-13T08:49:32.175Z,99.90
2018-08-13T08:52:00.617Z,99.90
2018-08-13T08:54:29.962Z,99.90
2018-08-13T08:56:58.499Z,99.90
2018-08-13T08:59:26.935Z,99.90
2018-08-13T09:01:55.365Z,99.90
2018-08-13T09:04:23.927Z,99.90
2018-08-13T09:06:52.364Z,99.90
2018-08-13T09:09:20.798Z,99.90
2018-08-13T09:11:49.232Z,99.90
2018-08-13T09:14:17.722Z,99.90
2018-08-13T09:16:48.467Z,99.90
2018-08-13T09:19:28.234Z,99.90
2018-08-13T09:22:07.837Z,99.90
2018-08-13T09:24:47.383Z,99.90
2018-08-13T09:27:27.010Z,99.90
2018-08-13T09:30:06.691Z,99.90
2018-08-13T09:32:46.395Z,99.90
2018-08-13T09:35:20.791Z,99.90
2018-08-13T09:37:50.130Z,99.90
2018-08-13T09:40:18.675Z,99.90
2018-08-13T09:42:47.202Z,99.90
2018-08-13T09:45:15.659Z,99.90
2018-08-13T09:47:44.084Z,99.90
2018-08-13T09:50:15.551Z,99.90
2018-08-13T09:52:44.676Z,99.90
2018-08-13T09:55:14.151Z,99.90
2018-08-13T09:57:43.592Z,99.90
2018-08-13T10:00:18.536Z,99.90
2018-08-13T10:02:47.919Z,99.90
2018-08-13T10:05:16.893Z,99.90
2018-08-13T10:07:45.795Z,99.90
2018-08-13T10:10:14.983Z,99.90
2018-08-13T10:12:44.211Z,99.90
2018-08-13T10:15:13.552Z,99.90
2018-08-13T10:17:42.119Z,99.90
2018-08-13T10:20:17.534Z,99.90
2018-08-13T10:22:46.376Z,99.90
2018-08-13T10:25:14.853Z,99.90
2018-08-13T10:27:43.364Z,99.90
2018-08-13T10:30:13.248Z,99.90
2018-08-13T10:32:42.032Z,99.90
2018-08-13T10:35:10.767Z,99.90
2018-08-13T10:37:39.923Z,99.90
2018-08-13T10:40:13.232Z,99.90
2018-08-13T10:42:41.757Z,99.90
2018-08-13T10:45:10.187Z,99.90
2018-08-13T10:47:38.640Z,99.90
2018-08-13T10:50:08.911Z,99.90
2018-08-13T10:52:37.660Z,99.90
2018-08-13T10:55:06.216Z,99.90
2018-08-13T10:57:34.790Z,99.90
2018-08-13T11:00:03.407Z,99.90
2018-08-13T11:02:31.885Z,99.90
2018-08-13T11:05:00.314Z,99.90
2018-08-13T11:07:29.056Z,99.90
2018-08-13T11:09:57.470Z,99.90
2018-08-13T11:12:25.926Z,99.90
2018-08-13T11:14:54.349Z,99.90
2018-08-13T11:17:22.809Z,99.90
2018-08-13T11:19:51.314Z,99.90
2018-08-13T11:22:19.781Z,99.90
2018-08-13T11:24:48.210Z,99.90
2018-08-13T11:27:16.653Z,99.90
2018-08-13T11:29:46.083Z,99.90
2018-08-13T11:32:14.580Z,99.90
2018-08-13T11:34:43.355Z,99.90
2018-08-13T11:37:11.838Z,99.90
2018-08-13T11:39:40.255Z,99.90
2018-08-13T11:42:08.699Z,99.90
2018-08-13T11:44:37.159Z,99.90
2018-08-13T11:47:05.571Z,99.90
2018-08-13T11:49:34.104Z,99.90
2018-08-13T11:52:02.507Z,99.90
2018-08-13T11:54:31.000Z,99.90
2018-08-13T11:56:59.426Z,99.90
2018-08-13T11:59:27.879Z,99.90
2018-08-13T12:01:56.300Z,99.90
2018-08-13T12:04:24.859Z,99.90
2018-08-13T12:06:53.327Z,99.90
2018-08-13T12:09:21.807Z,99.90
2018-08-13T12:11:50.238Z,99.90
2018-08-13T12:14:18.723Z,99.90
2018-08-13T12:16:47.150Z,99.90
2018-08-13T12:19:15.642Z,99.90
2018-08-13T12:21:44.068Z,99.90
2018-08-13T12:24:12.503Z,99.90
2018-08-13T12:26:40.966Z,99.90
2018-08-13T12:29:09.388Z,99.90
2018-08-13T12:31:44.367Z,99.90
2018-08-13T12:34:12.836Z,99.90
2018-08-13T12:36:41.367Z,99.90
2018-08-13T12:39:11.579Z,99.90
2018-08-13T12:41:40.127Z,99.90
2018-08-13T12:44:08.600Z,99.90
2018-08-13T12:46:37.050Z,99.90
2018-08-13T12:49:05.610Z,99.90
2018-08-13T12:51:34.203Z,99.90
2018-08-13T12:54:02.623Z,99.90
2018-08-13T12:56:31.287Z,99.90
2018-08-13T12:58:59.840Z,99.90
2018-08-13T13:01:28.400Z,99.90
2018-08-13T13:03:56.864Z,99.90
2018-08-13T13:06:25.331Z,99.90
2018-08-13T13:08:53.891Z,99.90
2018-08-13T13:11:22.328Z,99.90
2018-08-13T13:13:50.763Z,99.90
2018-08-13T13:16:19.296Z,99.90
2018-08-13T13:18:47.758Z,99.90
2018-08-13T13:21:16.191Z,99.90
2018-08-13T13:23:44.654Z,99.90
2018-08-13T13:26:13.196Z,99.90
2018-08-13T13:28:42.035Z,99.90
2018-08-13T13:31:10.819Z,99.90
2018-08-13T13:33:39.283Z,99.90
2018-08-13T13:36:07.987Z,99.90
2018-08-13T13:38:36.399Z,99.90
2018-08-13T13:41:04.871Z,99.90
2018-08-13T13:43:33.379Z,99.90
2018-08-13T13:46:01.834Z,99.90
2018-08-13T13:48:30.287Z,99.90
2018-08-13T13:50:58.750Z,99.90
2018-08-13T13:53:27.512Z,99.90
2018-08-13T13:55:55.959Z,99.90
2018-08-13T13:58:24.384Z,99.90
2018-08-13T14:00:52.865Z,99.90
2018-08-13T14:03:21.331Z,99.90
2018-08-13T14:05:49.870Z,99.90
2018-08-13T14:08:18.355Z,99.90
2018-08-13T14:10:46.799Z,99.90
2018-08-13T14:13:15.250Z,99.90
2018-08-13T14:15:43.699Z,99.90
2018-08-13T14:18:12.203Z,99.90
2018-08-13T14:20:40.772Z,99.90
2018-08-13T14:23:09.210Z,99.90
2018-08-13T14:25:37.621Z,99.90
2018-08-13T14:28:06.280Z,99.90
2018-08-13T14:30:34.731Z,99.90
2018-08-13T14:33:03.191Z,99.90
2018-08-13T14:35:31.656Z,99.90
2018-08-13T14:38:00.231Z,99.90
2018-08-13T14:40:28.834Z,99.90
2018-08-13T14:42:57.291Z,99.90
2018-08-13T14:45:25.756Z,99.90
2018-08-13T14:47:54.236Z,99.90
2018-08-13T14:50:22.687Z,99.90
2018-08-13T14:52:51.212Z,99.90
2018-08-13T14:55:21.163Z,99.90
2018-08-13T14:57:49.616Z,99.90
2018-08-13T15:00:26.832Z,99.90
2018-08-13T15:02:55.832Z,99.90
2018-08-13T15:05:24.431Z,99.90
2018-08-13T15:07:52.854Z,99.90
2018-08-13T15:10:23.587Z,99.90
2018-08-13T15:12:52.052Z,99.90
2018-08-13T15:15:20.539Z,99.90
2018-08-13T15:17:49.433Z,99.90
2018-08-13T15:20:20.600Z,99.90
2018-08-13T15:22:49.124Z,99.90
2018-08-13T15:25:17.591Z,99.90
2018-08-13T15:27:46.305Z,99.90
2018-08-13T15:30:16.392Z,99.90
2018-08-13T15:32:46.003Z,99.90
2018-08-13T15:35:14.880Z,99.90
2018-08-13T15:37:43.875Z,99.90
2018-08-13T15:40:12.382Z,99.90
2018-08-13T15:42:41.239Z,99.90
2018-08-13T15:45:14.139Z,99.90
2018-08-13T15:47:42.781Z,99.90
2018-08-13T15:50:13.027Z,99.90
2018-08-13T15:52:41.628Z,99.90
2018-08-13T15:55:10.046Z,99.90
2018-08-13T15:57:38.787Z,99.90
2018-08-13T16:00:08.767Z,99.90
2018-08-13T16:02:37.354Z,99.90
2018-08-13T16:05:07.759Z,99.90
2018-08-13T16:07:36.214Z,99.90
2018-08-13T16:10:07.079Z,99.90
2018-08-13T16:12:35.534Z,99.90
2018-08-13T16:15:05.021Z,99.90
2018-08-13T16:17:33.437Z,99.90
2018-08-13T16:20:02.015Z,99.90
2018-08-13T16:22:30.463Z,99.90
2018-08-13T16:24:58.928Z,99.90
2018-08-13T16:27:27.411Z,99.90
2018-08-13T16:29:55.865Z,99.90
2018-08-13T16:32:24.400Z,99.90
2018-08-13T16:34:52.912Z,99.90
2018-08-13T16:37:21.350Z,99.90
2018-08-13T16:39:49.900Z,99.90
2018-08-13T16:42:18.444Z,99.90
2018-08-13T16:44:47.081Z,99.90
2018-08-13T16:47:15.506Z,99.90
2018-08-13T16:49:43.971Z,99.90
2018-08-13T16:52:12.407Z,99.90
2018-08-13T16:54:40.862Z,99.90
2018-08-13T16:57:09.332Z,99.90
2018-08-13T16:59:37.887Z,99.90
2018-08-13T17:02:06.481Z,99.90
2018-08-13T17:04:34.963Z,99.90
2018-08-13T17:07:03.411Z,99.90
2018-08-13T17:09:31.880Z,99.90
2018-08-13T17:12:00.414Z,99.90
2018-08-13T17:14:29.116Z,99.90
2018-08-13T17:16:57.319Z,99.90
2018-08-13T17:19:25.831Z,99.90
2018-08-13T17:21:54.381Z,99.90
2018-08-13T17:24:22.874Z,99.90
2018-08-13T17:26:51.346Z,99.90
2018-08-13T17:29:19.759Z,99.90
2018-08-13T17:31:48.270Z,99.90
2018-08-13T17:34:16.875Z,99.90
2018-08-13T17:36:45.464Z,99.90
2018-08-13T17:39:14.975Z,99.90
2018-08-13T17:41:43.644Z,99.90
2018-08-13T17:44:12.088Z,99.90
2018-08-13T17:46:40.655Z,99.90
2018-08-13T17:49:09.874Z,99.90
2018-08-13T17:51:38.710Z,99.90
2018-08-13T17:54:07.887Z,99.90
2018-08-13T17:56:36.526Z,99.90
2018-08-13T17:59:05.678Z,99.90
2018-08-13T18:01:34.220Z,99.90
2018-08-13T18:04:02.843Z,99.90
2018-08-13T18:06:31.484Z,99.90
2018-08-13T18:09:00.052Z,99.90
2018-08-13T18:11:28.498Z,99.90
2018-08-13T18:13:56.964Z,99.90
2018-08-13T18:16:25.397Z,99.90
2018-08-13T18:18:54.114Z,99.90
2018-08-13T18:21:22.528Z,99.90
2018-08-13T18:23:50.987Z,99.90
2018-08-13T18:26:19.492Z,99.90
2018-08-13T18:28:47.995Z,99.90
2018-08-13T18:31:16.552Z,99.90
2018-08-13T18:33:44.985Z,99.90
2018-08-13T18:36:13.538Z,99.90
2018-08-13T18:38:41.980Z,99.90
2018-08-13T18:41:10.539Z,99.90
2018-08-13T18:43:39.101Z,99.90
2018-08-13T18:46:07.923Z,99.90
2018-08-13T18:48:36.525Z,99.90
2018-08-13T18:51:05.161Z,99.90
2018-08-13T18:53:33.741Z,99.90
2018-08-13T18:56:02.281Z,99.90
2018-08-13T18:58:30.768Z,99.90
2018-08-13T19:00:59.283Z,99.90
2018-08-13T19:03:27.812Z,99.90
2018-08-13T19:05:56.304Z,99.90
2018-08-13T19:08:24.801Z,99.90
2018-08-13T19:10:53.368Z,99.90
2018-08-13T19:13:21.820Z,99.90
2018-08-13T19:15:50.275Z,99.90
2018-08-13T19:18:18.833Z,99.90
2018-08-13T19:20:47.430Z,99.90
2018-08-13T19:23:15.856Z,99.90
2018-08-13T19:25:44.339Z,99.90
2018-08-13T19:28:12.913Z,99.90
2018-08-13T19:30:41.425Z,99.90
2018-08-13T19:33:09.991Z,99.90
2018-08-13T19:35:38.479Z,99.90
2018-08-13T19:38:06.992Z,99.90
2018-08-13T19:40:35.572Z,99.90
2018-08-13T19:43:04.106Z,99.90
2018-08-13T19:45:32.576Z,99.90
2018-08-13T19:48:01.051Z,99.90
2018-08-13T19:50:29.475Z,99.90
2018-08-13T19:52:57.912Z,99.90
2018-08-13T19:55:26.476Z,99.90
2018-08-13T19:57:54.998Z,99.90
2018-08-13T20:00:26.741Z,99.90
2018-08-13T20:02:55.696Z,99.90
2018-08-13T20:05:25.488Z,99.90
2018-08-13T20:07:54.821Z,99.90
2018-08-13T20:10:23.498Z,99.90
2018-08-13T20:12:52.112Z,99.90
2018-08-13T20:15:20.840Z,99.90
2018-08-13T20:17:49.412Z,99.90
2018-08-13T20:20:19.389Z,99.90
2018-08-13T20:22:48.462Z,99.90
2018-08-13T20:25:18.026Z,99.90
2018-08-13T20:27:47.155Z,99.90
2018-08-13T20:30:18.541Z,99.90
2018-08-13T20:32:48.281Z,99.90
2018-08-13T20:35:16.848Z,99.90
2018-08-13T20:37:45.323Z,99.90
2018-08-13T20:40:15.270Z,99.90
2018-08-13T20:42:44.458Z,99.90
2018-08-13T20:45:15.860Z,99.90
2018-08-13T20:47:45.032Z,99.90
2018-08-13T20:50:15.295Z,99.90
2018-08-13T20:52:44.202Z,99.90
2018-08-13T20:55:15.803Z,99.90
2018-08-13T20:57:45.067Z,99.90
2018-08-13T21:00:14.675Z,99.90
2018-08-13T21:02:44.606Z,99.90
2018-08-13T21:05:13.240Z,99.90
2018-08-13T21:07:41.773Z,99.90
2018-08-13T21:10:12.455Z,99.90
2018-08-13T21:12:40.919Z,99.90
2018-08-13T21:15:11.612Z,99.90
2018-08-13T21:17:40.183Z,99.90
2018-08-13T21:20:09.798Z,99.90
2018-08-13T21:22:38.566Z,99.90
2018-08-13T21:25:09.999Z,99.90
2018-08-13T21:27:38.466Z,99.90
2018-08-13T21:30:07.191Z,99.90
2018-08-13T21:32:35.705Z,99.90
2018-08-13T21:35:04.831Z,99.90
2018-08-13T21:37:33.748Z,99.90
2018-08-13T21:40:02.201Z,99.90
2018-08-13T21:42:30.752Z,99.90
2018-08-13T21:44:59.581Z,99.90
2018-08-13T21:47:28.035Z,99.90
2018-08-13T21:49:56.589Z,99.90
2018-08-13T21:52:25.075Z,99.90
2018-08-13T21:54:53.620Z,99.90
2018-08-13T21:57:24.239Z,99.90
2018-08-13T21:59:54.200Z,99.90
2018-08-13T22:02:22.711Z,99.90
2018-08-13T22:04:51.159Z,99.90
2018-08-13T22:07:19.679Z,99.90
2018-08-13T22:09:48.598Z,99.90
2018-08-13T22:12:20.234Z,99.90
2018-08-13T22:14:49.455Z,99.90
2018-08-13T22:17:17.940Z,99.90
2018-08-13T22:19:46.512Z,99.90
2018-08-13T22:22:14.955Z,99.90
2018-08-13T22:24:54.643Z,99.90
2018-08-13T22:27:23.100Z,99.90
2018-08-13T22:29:51.547Z,99.90
2018-08-13T22:32:20.037Z,99.90
2018-08-13T22:34:48.487Z,99.90
2018-08-13T22:37:17.049Z,99.90
2018-08-13T22:39:45.554Z,99.90
2018-08-13T22:42:14.172Z,99.90
2018-08-13T22:44:42.631Z,99.90
2018-08-13T22:47:11.103Z,99.90
2018-08-13T22:49:39.568Z,99.90
2018-08-13T22:52:08.173Z,99.90
2018-08-13T22:54:36.551Z,99.90
2018-08-13T22:57:05.129Z,99.90
2018-08-13T22:59:33.562Z,99.90
2018-08-13T23:02:02.059Z,99.90
2018-08-13T23:04:30.511Z,99.90
2018-08-13T23:06:58.979Z,99.90
2018-08-13T23:09:27.411Z,99.90
2018-08-13T23:11:55.856Z,99.90
2018-08-13T23:14:24.282Z,99.90
2018-08-13T23:16:52.741Z,99.90
2018-08-13T23:19:21.165Z,99.90
2018-08-13T23:21:49.647Z,99.90
2018-08-13T23:24:18.099Z,99.90
2018-08-13T23:26:46.531Z,99.90
2018-08-13T23:29:14.958Z,99.90
2018-08-13T23:31:43.408Z,99.90
2018-08-13T23:34:11.899Z,99.90
2018-08-13T23:36:40.347Z,99.90
2018-08-13T23:39:11.880Z,99.90
2018-08-13T23:41:40.364Z,99.90
2018-08-13T23:44:09.356Z,99.90
2018-08-13T23:46:37.851Z,99.90
2018-08-13T23:49:06.362Z,99.90
2018-08-13T23:51:35.103Z,99.90
2018-08-13T23:54:03.550Z,99.90
2018-08-13T23:56:31.974Z,99.90
2018-08-13T23:59:00.411Z,99.90
